createdAt,value
2023-04-10T00:00:38.158Z,5.66
2023-04-10T00:03:05.897Z,5.67
2023-04-10T00:05:33.271Z,5.58
2023-04-10T00:08:00.870Z,5.64
2023-04-10T00:10:30.434Z,5.64
2023-04-10T00:12:58.933Z,5.66
2023-04-10T00:15:25.925Z,5.60
2023-04-10T00:17:55.242Z,5.67
2023-04-10T00:20:23.565Z,5.53
2023-04-10T00:22:50.720Z,5.56
2023-04-10T00:25:17.962Z,5.75
2023-04-10T00:27:44.973Z,5.60
2023-04-10T00:30:12.045Z,5.52
2023-04-10T00:32:39.079Z,5.45
2023-04-10T00:35:08.019Z,5.35
2023-04-10T00:37:34.961Z,5.38
2023-04-10T00:40:02.047Z,5.54
2023-04-10T00:42:29.055Z,5.56
2023-04-10T00:44:56.044Z,5.53
2023-04-10T00:47:23.045Z,5.12
2023-04-10T00:49:50.457Z,4.81
2023-04-10T00:52:17.843Z,4.94
2023-04-10T00:54:44.931Z,5.12
2023-04-10T00:57:12.332Z,5.31
2023-04-10T00:59:39.914Z,4.03
2023-04-10T01:02:07.423Z,4.51
2023-04-10T01:04:34.802Z,4.64
2023-04-10T01:07:21.559Z,4.45
2023-04-10T01:10:07.076Z,4.32
2023-04-10T01:12:58.670Z,3.62
2023-04-10T01:15:30.892Z,3.23
2023-04-10T01:18:07.431Z,2.77
2023-04-10T01:20:39.616Z,2.72
2023-04-10T01:23:47.972Z,2.52
2023-04-10T01:26:19.765Z,2.32
2023-04-10T01:28:53.841Z,2.13
2023-04-10T01:31:33.428Z,1.96
2023-04-10T01:34:12.028Z,1.86
2023-04-10T01:36:52.081Z,1.93
2023-04-10T01:39:21.809Z,2.02
2023-04-10T01:41:52.730Z,1.99
2023-04-10T01:44:28.171Z,2.01
2023-04-10T01:46:57.676Z,1.90
2023-04-10T01:49:27.807Z,1.75
2023-04-10T01:52:02.395Z,1.98
2023-04-10T01:54:32.747Z,2.02
2023-04-10T01:57:02.156Z,1.97
2023-04-10T01:59:31.214Z,2.07
2023-04-10T02:02:02.044Z,1.62
2023-04-10T02:04:29.327Z,1.64
2023-04-10T02:07:07.697Z,1.73
2023-04-10T02:09:55.675Z,2.10
2023-04-10T02:12:30.282Z,1.91
2023-04-10T02:15:01.975Z,1.80
2023-04-10T02:17:31.188Z,1.33
2023-04-10T02:19:59.506Z,1.12
2023-04-10T02:22:27.700Z,1.44
2023-04-10T02:24:54.851Z,1.49
2023-04-10T02:27:36.291Z,1.42
2023-04-10T02:30:04.950Z,1.57
2023-04-10T02:32:34.770Z,1.57
2023-04-10T02:35:02.907Z,1.38
2023-04-10T02:37:31.389Z,1.54
2023-04-10T02:40:00.686Z,1.51
2023-04-10T02:42:32.295Z,1.52
2023-04-10T02:45:01.314Z,1.27
2023-04-10T02:47:34.150Z,1.22
2023-04-10T02:50:01.298Z,1.21
2023-04-10T02:52:33.021Z,0.98
2023-04-10T02:55:00.034Z,1.03
2023-04-10T02:57:32.197Z,0.84
2023-04-10T02:59:59.178Z,0.73
2023-04-10T03:02:28.433Z,0.80
2023-04-10T03:04:58.976Z,0.84
2023-04-10T03:07:28.165Z,0.76
2023-04-10T03:09:55.118Z,0.63
2023-04-10T03:12:22.216Z,0.46
2023-04-10T03:14:49.210Z,0.43
2023-04-10T03:17:16.189Z,0.56
2023-04-10T03:19:43.259Z,0.42
2023-04-10T03:22:11.087Z,0.50
2023-04-10T03:24:41.066Z,0.72
2023-04-10T03:27:08.118Z,0.94
2023-04-10T03:29:35.155Z,0.94
2023-04-10T03:32:02.432Z,1.00
2023-04-10T03:34:30.434Z,1.00
2023-04-10T03:36:57.448Z,0.74
2023-04-10T03:39:24.688Z,0.39
2023-04-10T03:41:51.700Z,0.39
2023-04-10T03:44:19.762Z,0.34
2023-04-10T03:46:46.760Z,0.27
2023-04-10T03:49:13.741Z,0.11
2023-04-10T03:51:41.140Z,0.07
2023-04-10T03:54:08.103Z,0.28
2023-04-10T03:56:35.361Z,0.34
2023-04-10T03:59:02.393Z,0.75
2023-04-10T04:01:32.710Z,0.72
2023-04-10T04:04:05.107Z,0.72
2023-04-10T04:06:50.448Z,1.09
2023-04-10T04:09:20.667Z,1.07
2023-04-10T04:12:08.127Z,0.99
2023-04-10T04:14:53.719Z,0.61
2023-04-10T04:17:23.330Z,0.39
2023-04-10T04:19:57.844Z,0.48
2023-04-10T04:22:44.808Z,0.88
2023-04-10T04:25:34.672Z,0.53
2023-04-10T04:28:04.353Z,0.60
2023-04-10T04:30:35.712Z,0.39
2023-04-10T04:33:25.582Z,0.38
2023-04-10T04:35:58.235Z,0.36
2023-04-10T04:38:55.492Z,0.24
2023-04-10T04:41:30.731Z,0.15
2023-04-10T04:44:10.298Z,0.21
2023-04-10T04:46:51.101Z,0.29
2023-04-10T04:49:40.981Z,0.47
2023-04-10T04:52:28.036Z,0.42
2023-04-10T04:55:17.668Z,0.64
2023-04-10T04:58:05.404Z,0.66
2023-04-10T05:00:44.527Z,0.88
2023-04-10T05:03:32.595Z,2.41
2023-04-10T05:06:22.913Z,1.39
2023-04-10T05:09:09.497Z,1.01
2023-04-10T05:12:06.006Z,3.46
2023-04-10T05:14:52.038Z,2.73
2023-04-10T05:17:37.362Z,5.00
2023-04-10T05:20:14.449Z,5.61
2023-04-10T05:22:56.152Z,6.28
2023-04-10T05:25:46.169Z,6.19
2023-04-10T05:28:19.593Z,6.74
2023-04-10T05:31:07.168Z,7.23
2023-04-10T05:33:50.691Z,6.65
2023-04-10T05:36:39.232Z,7.54
2023-04-10T05:39:20.577Z,7.83
2023-04-10T05:41:59.068Z,7.88
2023-04-10T05:44:31.498Z,7.11
2023-04-10T05:47:18.690Z,8.19
2023-04-10T05:49:57.599Z,8.38
2023-04-10T05:52:42.898Z,8.64
2023-04-10T05:55:33.088Z,8.16
2023-04-10T05:58:14.918Z,8.27
2023-04-10T06:00:59.315Z,8.47
2023-04-10T06:03:48.091Z,9.53
2023-04-10T06:06:17.256Z,9.48
2023-04-10T06:08:44.868Z,9.66
2023-04-10T06:11:11.964Z,10.13
2023-04-10T06:13:41.344Z,9.97
2023-04-10T06:16:09.122Z,10.66
2023-04-10T06:18:37.706Z,10.25
2023-04-10T06:21:05.056Z,10.31
2023-04-10T06:23:32.291Z,10.32
2023-04-10T06:26:00.352Z,10.42
2023-04-10T06:28:27.552Z,10.87
2023-04-10T06:30:58.268Z,11.38
2023-04-10T06:33:31.215Z,11.82
2023-04-10T06:35:59.115Z,11.19
2023-04-10T06:38:26.282Z,11.38
2023-04-10T06:40:53.517Z,11.39
2023-04-10T06:43:20.467Z,11.16
2023-04-10T06:45:48.804Z,11.68
2023-04-10T06:48:15.789Z,10.96
2023-04-10T06:50:42.919Z,10.57
2023-04-10T06:53:09.948Z,10.68
2023-04-10T06:55:37.624Z,10.74
2023-04-10T06:58:04.780Z,10.60
2023-04-10T07:00:32.310Z,10.99
2023-04-10T07:02:59.293Z,11.28
2023-04-10T07:05:26.352Z,11.77
2023-04-10T07:07:53.423Z,11.26
2023-04-10T07:10:20.815Z,11.53
2023-04-10T07:12:47.936Z,12.04
2023-04-10T07:15:14.911Z,11.96
2023-04-10T07:17:42.499Z,11.96
2023-04-10T07:20:10.493Z,12.08
2023-04-10T07:22:37.628Z,12.43
2023-04-10T07:25:05.040Z,12.95
2023-04-10T07:27:32.261Z,13.69
2023-04-10T07:29:59.182Z,13.25
2023-04-10T07:32:26.945Z,14.51
2023-04-10T07:34:54.230Z,14.18
2023-04-10T07:37:21.305Z,13.56
2023-04-10T07:39:48.281Z,13.81
2023-04-10T07:42:15.390Z,14.20
2023-04-10T07:44:42.307Z,13.47
2023-04-10T07:47:09.658Z,13.87
2023-04-10T07:49:36.791Z,14.91
2023-04-10T07:52:03.868Z,14.21
2023-04-10T07:54:34.432Z,14.84
2023-04-10T07:57:01.456Z,13.98
2023-04-10T07:59:28.786Z,14.08
2023-04-10T08:01:56.158Z,14.18
2023-04-10T08:04:23.567Z,14.00
2023-04-10T08:06:50.861Z,14.28
2023-04-10T08:09:17.931Z,13.86
2023-04-10T08:11:44.918Z,14.06
2023-04-10T08:14:13.449Z,14.26
2023-04-10T08:16:45.336Z,13.58
2023-04-10T08:19:12.502Z,14.22
2023-04-10T08:21:39.450Z,14.17
2023-04-10T08:24:06.568Z,14.45
2023-04-10T08:26:33.525Z,14.42
2023-04-10T08:29:00.963Z,15.55
2023-04-10T08:31:29.329Z,14.67
2023-04-10T08:33:57.163Z,14.61
2023-04-10T08:36:24.655Z,15.16
2023-04-10T08:38:51.588Z,14.52
2023-04-10T08:41:20.092Z,14.51
2023-04-10T08:43:47.433Z,14.46
2023-04-10T08:46:15.139Z,14.53
2023-04-10T08:49:03.966Z,14.18
2023-04-10T08:51:42.822Z,13.74
2023-04-10T08:54:23.342Z,15.77
2023-04-10T08:56:53.995Z,14.80
2023-04-10T08:59:21.231Z,14.58
2023-04-10T09:01:49.089Z,14.56
2023-04-10T09:04:20.434Z,14.31
2023-04-10T09:06:47.701Z,15.32
2023-04-10T09:09:14.686Z,14.69
2023-04-10T09:11:56.459Z,14.75
2023-04-10T09:14:25.679Z,15.01
2023-04-10T09:16:55.097Z,14.74
2023-04-10T09:19:33.686Z,14.57
2023-04-10T09:22:01.071Z,14.86
2023-04-10T09:24:28.449Z,14.62
2023-04-10T09:26:56.249Z,14.35
2023-04-10T09:29:23.230Z,14.59
2023-04-10T09:31:51.357Z,14.66
2023-04-10T09:34:23.698Z,15.73
2023-04-10T09:36:59.870Z,14.61
2023-04-10T09:39:36.086Z,15.43
2023-04-10T09:42:03.108Z,15.51
2023-04-10T09:44:37.381Z,15.22
2023-04-10T09:47:22.976Z,16.08
2023-04-10T09:49:56.792Z,16.23
2023-04-10T09:52:29.115Z,16.10
2023-04-10T09:55:08.638Z,16.33
2023-04-10T09:57:36.422Z,16.10
2023-04-10T10:00:08.154Z,16.74
2023-04-10T10:02:41.716Z,16.53
2023-04-10T10:05:10.113Z,16.43
2023-04-10T10:07:38.735Z,15.54
2023-04-10T10:10:09.231Z,16.15
2023-04-10T10:12:44.879Z,16.80
2023-04-10T10:15:21.091Z,16.59
2023-04-10T10:18:02.942Z,16.57
2023-04-10T10:20:32.900Z,16.32
2023-04-10T10:23:03.581Z,15.87
2023-04-10T10:25:31.823Z,16.30
2023-04-10T10:28:03.604Z,17.00
2023-04-10T10:30:33.865Z,16.43
2023-04-10T10:33:07.600Z,16.57
2023-04-10T10:35:38.057Z,17.50
2023-04-10T10:38:06.283Z,18.17
2023-04-10T10:40:39.757Z,18.16
2023-04-10T10:43:25.181Z,16.45
2023-04-10T10:46:03.643Z,16.99
2023-04-10T10:48:31.066Z,17.08
2023-04-10T10:51:00.453Z,16.42
2023-04-10T10:53:37.939Z,16.88
2023-04-10T10:56:20.819Z,16.53
2023-04-10T10:58:57.553Z,16.04
2023-04-10T11:01:25.164Z,17.58
2023-04-10T11:03:52.717Z,17.10
2023-04-10T11:06:21.595Z,16.76
2023-04-10T11:08:52.954Z,16.83
2023-04-10T11:11:25.205Z,16.14
2023-04-10T11:13:52.562Z,16.00
2023-04-10T11:16:21.408Z,16.27
2023-04-10T11:19:02.702Z,16.45
2023-04-10T11:21:45.602Z,16.60
2023-04-10T11:24:13.113Z,17.06
2023-04-10T11:26:41.597Z,16.39
2023-04-10T11:29:17.646Z,16.79
2023-04-10T11:31:46.149Z,16.94
2023-04-10T11:34:15.681Z,17.42
2023-04-10T11:36:44.631Z,17.93
2023-04-10T11:39:13.266Z,17.08
2023-04-10T11:41:43.464Z,17.03
2023-04-10T11:44:16.482Z,17.14
2023-04-10T11:46:47.449Z,17.08
2023-04-10T11:49:22.001Z,17.77
2023-04-10T11:51:51.070Z,18.42
2023-04-10T11:54:25.916Z,17.43
2023-04-10T11:57:09.118Z,17.87
2023-04-10T11:59:36.814Z,18.73
2023-04-10T12:02:17.604Z,19.08
2023-04-10T12:04:45.559Z,17.59
2023-04-10T12:07:13.083Z,18.21
2023-04-10T12:09:40.900Z,18.40
2023-04-10T12:12:08.950Z,18.03
2023-04-10T12:14:42.665Z,18.26
2023-04-10T12:17:12.885Z,18.29
2023-04-10T12:19:40.733Z,18.04
2023-04-10T12:22:08.108Z,18.17
2023-04-10T12:24:51.213Z,18.97
2023-04-10T12:27:26.966Z,18.49
2023-04-10T12:29:56.394Z,19.05
2023-04-10T12:32:24.773Z,19.50
2023-04-10T12:35:01.389Z,18.72
2023-04-10T12:38:07.382Z,18.63
2023-04-10T12:40:34.763Z,17.86
2023-04-10T12:43:02.099Z,19.43
2023-04-10T12:45:49.744Z,19.56
2023-04-10T12:48:24.535Z,19.15
2023-04-10T12:50:52.428Z,18.42
2023-04-10T12:53:19.805Z,18.47
2023-04-10T12:56:03.162Z,18.59
2023-04-10T12:58:31.728Z,18.28
2023-04-10T13:01:03.911Z,17.87
2023-04-10T13:03:33.832Z,18.06
2023-04-10T13:06:01.351Z,17.20
2023-04-10T13:08:32.157Z,17.23
2023-04-10T13:11:05.738Z,17.44
2023-04-10T13:13:33.400Z,16.90
2023-04-10T13:16:00.838Z,17.41
2023-04-10T13:18:28.317Z,17.26
2023-04-10T13:20:55.741Z,17.17
2023-04-10T13:23:23.154Z,16.99
2023-04-10T13:25:51.107Z,17.09
2023-04-10T13:28:18.961Z,17.32
2023-04-10T13:30:46.379Z,17.52
2023-04-10T13:33:13.889Z,17.35
2023-04-10T13:35:41.311Z,17.42
2023-04-10T13:38:09.562Z,17.13
2023-04-10T13:40:37.140Z,17.20
2023-04-10T13:43:06.323Z,17.17
2023-04-10T13:45:34.889Z,17.22
2023-04-10T13:48:02.330Z,16.76
2023-04-10T13:50:29.686Z,16.84
2023-04-10T13:52:57.059Z,16.71
2023-04-10T13:55:24.454Z,16.80
2023-04-10T13:57:52.112Z,16.53
2023-04-10T14:00:19.616Z,17.22
2023-04-10T14:02:47.132Z,16.94
2023-04-10T14:05:14.533Z,16.67
2023-04-10T14:07:41.946Z,16.83
2023-04-10T14:10:09.918Z,17.00
2023-04-10T14:12:38.019Z,16.79
2023-04-10T14:15:05.964Z,16.86
2023-04-10T14:17:33.985Z,16.81
2023-04-10T14:20:01.822Z,16.77
2023-04-10T14:22:30.336Z,16.69
2023-04-10T14:25:09.435Z,16.82
2023-04-10T14:27:42.080Z,16.84
2023-04-10T14:30:10.765Z,16.57
2023-04-10T14:32:39.632Z,16.61
2023-04-10T14:35:07.504Z,16.96
2023-04-10T14:37:34.859Z,16.99
2023-04-10T14:40:02.386Z,16.87
2023-04-10T14:42:30.068Z,17.11
2023-04-10T14:45:00.541Z,16.92
2023-04-10T14:47:28.065Z,17.08
2023-04-10T14:49:55.494Z,17.07
2023-04-10T14:52:22.996Z,16.91
2023-04-10T14:54:50.367Z,17.03
2023-04-10T14:57:17.746Z,17.19
2023-04-10T14:59:45.403Z,16.81
2023-04-10T15:02:12.745Z,17.11
2023-04-10T15:04:40.329Z,17.01
2023-04-10T15:07:07.780Z,17.04
2023-04-10T15:09:35.196Z,17.13
2023-04-10T15:12:02.565Z,17.10
2023-04-10T15:14:29.903Z,17.06
2023-04-10T15:16:57.365Z,17.16
2023-04-10T15:19:24.869Z,17.10
2023-04-10T15:21:52.168Z,16.90
2023-04-10T15:24:19.528Z,16.87
2023-04-10T15:26:47.178Z,17.10
2023-04-10T15:29:14.829Z,16.74
2023-04-10T15:31:42.324Z,17.02
2023-04-10T15:34:10.308Z,17.15
2023-04-10T15:36:37.660Z,16.86
2023-04-10T15:39:05.195Z,16.81
2023-04-10T15:41:33.147Z,16.59
2023-04-10T15:44:00.560Z,16.66
2023-04-10T15:46:29.116Z,16.62
2023-04-10T15:48:56.429Z,16.58
2023-04-10T15:51:23.820Z,16.40
2023-04-10T15:53:51.155Z,16.38
2023-04-10T15:56:18.518Z,16.37
2023-04-10T15:58:45.848Z,16.50
2023-04-10T16:01:13.317Z,16.46
2023-04-10T16:03:41.006Z,16.39
2023-04-10T16:06:08.830Z,16.30
2023-04-10T16:08:36.274Z,16.39
2023-04-10T16:11:03.760Z,16.28
2023-04-10T16:13:31.154Z,16.28
2023-04-10T16:15:58.675Z,16.16
2023-04-10T16:18:26.170Z,16.15
2023-04-10T16:20:53.579Z,16.12
2023-04-10T16:23:21.011Z,16.07
2023-04-10T16:25:48.339Z,16.11
2023-04-10T16:28:15.758Z,16.07
2023-04-10T16:30:43.077Z,16.01
2023-04-10T16:33:10.567Z,15.96
2023-04-10T16:35:38.103Z,15.94
2023-04-10T16:38:05.566Z,15.91
2023-04-10T16:40:33.161Z,15.84
2023-04-10T16:43:01.851Z,15.89
2023-04-10T16:45:29.415Z,15.82
2023-04-10T16:47:56.834Z,15.83
2023-04-10T16:50:24.227Z,15.74
2023-04-10T16:52:51.612Z,15.73
2023-04-10T16:55:19.023Z,15.69
2023-04-10T16:57:46.740Z,15.67
2023-04-10T17:00:14.450Z,15.63
2023-04-10T17:02:42.973Z,15.63
2023-04-10T17:05:12.216Z,15.55
2023-04-10T17:07:39.556Z,15.48
2023-04-10T17:10:07.409Z,15.39
2023-04-10T17:12:34.883Z,15.29
2023-04-10T17:15:02.421Z,15.24
2023-04-10T17:17:29.894Z,15.13
2023-04-10T17:19:58.495Z,15.13
2023-04-10T17:22:26.191Z,14.99
2023-04-10T17:24:53.593Z,14.95
2023-04-10T17:27:21.004Z,14.87
2023-04-10T17:29:48.405Z,14.92
2023-04-10T17:32:15.797Z,14.90
2023-04-10T17:34:43.135Z,14.88
2023-04-10T17:37:10.510Z,14.76
2023-04-10T17:39:37.917Z,14.88
2023-04-10T17:42:05.278Z,14.85
2023-04-10T17:44:33.027Z,14.78
2023-04-10T17:47:01.379Z,14.75
2023-04-10T17:49:28.779Z,14.74
2023-04-10T17:51:56.165Z,14.77
2023-04-10T17:54:23.499Z,14.64
2023-04-10T17:56:53.000Z,14.57
2023-04-10T17:59:20.358Z,14.58
2023-04-10T18:01:47.976Z,14.58
2023-04-10T18:04:15.429Z,14.61
2023-04-10T18:06:42.876Z,14.59
2023-04-10T18:09:11.490Z,14.53
2023-04-10T18:11:40.382Z,14.66
2023-04-10T18:14:07.840Z,14.53
2023-04-10T18:16:35.273Z,14.52
2023-04-10T18:19:02.725Z,14.43
2023-04-10T18:21:31.491Z,14.48
2023-04-10T18:23:58.802Z,14.50
2023-04-10T18:26:28.572Z,14.46
2023-04-10T18:28:56.204Z,14.33
2023-04-10T18:31:24.120Z,14.39
2023-04-10T18:34:03.826Z,14.28
2023-04-10T18:36:34.293Z,14.33
2023-04-10T18:39:01.700Z,14.31
2023-04-10T18:41:29.143Z,14.33
2023-04-10T18:44:04.884Z,14.38
2023-04-10T18:46:33.258Z,14.33
2023-04-10T18:49:01.623Z,14.31
2023-04-10T18:51:29.196Z,14.29
2023-04-10T18:53:56.735Z,14.15
2023-04-10T18:56:24.278Z,14.24
2023-04-10T18:58:51.684Z,14.11
2023-04-10T19:01:19.030Z,14.12
2023-04-10T19:03:49.140Z,14.13
2023-04-10T19:06:18.398Z,14.00
2023-04-10T19:08:45.803Z,14.08
2023-04-10T19:11:13.126Z,13.98
2023-04-10T19:13:40.795Z,13.95
2023-04-10T19:16:09.073Z,14.03
2023-04-10T19:18:36.406Z,13.94
2023-04-10T19:21:04.210Z,13.93
2023-04-10T19:23:31.596Z,13.84
2023-04-10T19:26:00.305Z,13.85
2023-04-10T19:28:28.619Z,13.79
2023-04-10T19:30:56.083Z,13.83
2023-04-10T19:33:24.148Z,13.84
2023-04-10T19:35:51.740Z,13.90
2023-04-10T19:38:19.293Z,13.81
2023-04-10T19:40:47.266Z,13.85
2023-04-10T19:43:14.656Z,13.81
2023-04-10T19:45:42.054Z,13.79
2023-04-10T19:48:09.895Z,13.75
2023-04-10T19:50:37.288Z,13.93
2023-04-10T19:53:04.971Z,13.90
2023-04-10T19:55:32.414Z,13.85
2023-04-10T19:57:59.890Z,13.86
2023-04-10T20:00:27.228Z,13.84
2023-04-10T20:02:54.993Z,13.81
2023-04-10T20:05:22.532Z,13.65
2023-04-10T20:07:50.417Z,13.67
2023-04-10T20:10:17.798Z,13.64
2023-04-10T20:12:45.269Z,13.67
2023-04-10T20:15:12.782Z,13.76
2023-04-10T20:17:40.260Z,13.76
2023-04-10T20:20:08.154Z,13.72
2023-04-10T20:22:35.678Z,13.70
2023-04-10T20:25:03.012Z,13.68
2023-04-10T20:27:30.380Z,13.63
2023-04-10T20:29:57.677Z,13.54
2023-04-10T20:32:25.148Z,13.48
2023-04-10T20:34:52.691Z,13.48
2023-04-10T20:37:21.995Z,13.49
2023-04-10T20:39:49.662Z,13.52
2023-04-10T20:42:17.185Z,13.47
2023-04-10T20:44:44.613Z,13.45
2023-04-10T20:47:12.114Z,13.37
2023-04-10T20:49:39.605Z,13.46
2023-04-10T20:52:07.477Z,13.56
2023-04-10T20:54:34.870Z,13.47
2023-04-10T20:57:02.271Z,13.65
2023-04-10T20:59:30.072Z,13.80
2023-04-10T21:02:00.281Z,13.75
2023-04-10T21:04:27.637Z,13.82
2023-04-10T21:06:55.014Z,13.85
2023-04-10T21:09:22.434Z,13.77
2023-04-10T21:11:49.843Z,13.82
2023-04-10T21:14:17.195Z,13.91
2023-04-10T21:16:45.877Z,13.84
2023-04-10T21:19:13.430Z,13.87
2023-04-10T21:21:40.860Z,13.92
2023-04-10T21:24:08.334Z,13.92
2023-04-10T21:26:35.728Z,13.89
2023-04-10T21:29:03.072Z,13.85
2023-04-10T21:31:30.602Z,13.90
2023-04-10T21:33:58.011Z,13.87
2023-04-10T21:36:26.450Z,13.81
2023-04-10T21:38:54.058Z,13.91
2023-04-10T21:41:21.676Z,13.86
2023-04-10T21:43:49.030Z,13.81
2023-04-10T21:46:16.356Z,13.81
2023-04-10T21:48:43.849Z,13.89
2023-04-10T21:51:11.181Z,13.84
2023-04-10T21:53:38.696Z,13.94
2023-04-10T21:56:06.540Z,13.86
2023-04-10T21:58:33.928Z,13.83
2023-04-10T22:01:01.622Z,13.96
2023-04-10T22:03:29.216Z,13.98
2023-04-10T22:05:56.568Z,13.98
2023-04-10T22:08:23.949Z,14.09
2023-04-10T22:10:52.281Z,14.16
2023-04-10T22:13:30.446Z,14.13
2023-04-10T22:15:59.805Z,14.15
2023-04-10T22:18:27.262Z,14.29
2023-04-10T22:20:54.580Z,14.24
2023-04-10T22:23:22.006Z,14.51
2023-04-10T22:25:49.353Z,14.31
2023-04-10T22:28:16.741Z,14.38
2023-04-10T22:30:44.124Z,14.37
2023-04-10T22:33:12.164Z,14.31
2023-04-10T22:35:39.514Z,14.29
2023-04-10T22:38:07.691Z,14.21
2023-04-10T22:40:35.295Z,14.27
2023-04-10T22:43:02.672Z,14.18
2023-04-10T22:45:30.130Z,14.16
2023-04-10T22:47:57.568Z,14.26
2023-04-10T22:50:24.869Z,14.16
2023-04-10T22:52:52.181Z,14.21
2023-04-10T22:55:19.638Z,14.10
2023-04-10T22:57:50.223Z,14.09
2023-04-10T23:00:17.847Z,14.16
2023-04-10T23:02:45.387Z,14.19
2023-04-10T23:05:12.777Z,14.11
2023-04-10T23:07:40.395Z,14.10
2023-04-10T23:10:08.476Z,14.08
2023-04-10T23:12:35.853Z,14.01
2023-04-10T23:15:03.639Z,14.05
2023-04-10T23:17:31.077Z,14.04
2023-04-10T23:19:58.516Z,14.02
2023-04-10T23:22:25.915Z,14.13
2023-04-10T23:24:54.744Z,14.10
2023-04-10T23:27:22.308Z,14.12
2023-04-10T23:29:50.104Z,14.05
2023-04-10T23:32:17.562Z,14.08
2023-04-10T23:34:44.900Z,14.05
2023-04-10T23:37:12.333Z,14.07
2023-04-10T23:39:39.718Z,14.05
2023-04-10T23:42:07.119Z,14.00
2023-04-10T23:44:34.453Z,14.03
2023-04-10T23:47:01.945Z,13.98
2023-04-10T23:49:29.428Z,13.98
2023-04-10T23:51:56.836Z,13.99
2023-04-10T23:54:24.183Z,13.98
2023-04-10T23:56:51.552Z,13.89
2023-04-10T23:59:19.492Z,13.87
